Pasadena, TX

12:54 PM CDT en Septiembre 30, 2014 (GMT -0500)
London | Change Station
CLOSE
Current Station
Estación meteorológica personal
Location: Pasadena, TX
Altura: 39 ft
Estaciones meteorológicas cercanas

Alt 39 ft 29.69 °N, 95.18 °W | Updated 3 minutes ago

Parcialmente nublado
Parcialmente nublado
88.3 ° F
Sensación térmica 100 ° F
N
4.2
Viento Variable Viento desde ESE

Hoy
Alta -- | Baja -- ° F
--% Posibilidad de precipitaciones
Ayer
Alta -- | Baja -- ° F
Precip. -- pul
7:13 AM 7:07 PM
Creciente, 38% visible
Presión 29.89 pul
Visibilidad 10.0 Millas
Nubes Nubes dispersas 1200 ft
Índice de calor 100 ° F
Punto de rocío 76 ° F
Humedad 68%
Precipitaciones 0.00 pul
Espesor de la nieve No disponible.
UV 6 de una escala de 12
Polen 7.80 de una escala de 12
Ozono Buena
PM2.5 Moderada
Flu Activity No disponible.
METAR KEFD 301650Z 06007KT 10SM SCT012 31/25 A2989

More Conditions Fewer Conditions

Presión 29.89 pul
Visibilidad 10.0 Millas
Nubes Nubes dispersas 1200 ft
Índice de calor 100 ° F
Punto de rocío 76 ° F
Humedad 68%
Precipitaciones 0.00 pul
Espesor de la nieve No disponible.
UV 6 de una escala de 12
Polen 7.80 de una escala de 12
Ozono Buena
PM2.5 Moderada
Flu Activity No disponible.
METAR KEFD 301650Z 06007KT 10SM SCT012 31/25 A2989

More Conditions Fewer Conditions

10-Day Weather Forecast

Almanac

Astronomía

Sep. 30, 2014 Salida Puesta
Hora real 7:13 AM CDT 7:07 PM CDT
Crepúsculo civil 6:49 AM CDT 7:31 PM CDT
Crepúsculo náutico 6:21 AM CDT 7:58 PM CDT
Crepúsculo astronómico 5:54 AM CDT 8:26 PM CDT
Luna 1:02 PM CDT 11:57 PM CDT
Horas de luz 12h 41m
Horas de luz
11h 53m
Tomorrow will be 1m 45s shorter.
Creciente, 38% of the Moon is Illuminated
Hoy
Creciente
Oct 1
Cuarto creciente
Oct 8
Luna llena
Oct 15
Cuarto menguante
Oct 23
Nueva

Extremos de hoy

Máximos del estado Bajos del estado

Community

WunderPhotos

Upload Photos

1,757,693 ¡fotos cargadas!

Nearby

Calidad del aire

  Calidad del aire Índice AQ Contaminante
Ayer Buena
PM2.5
Ayer Buena
OZONE
Real Moderada
PM2.5
Real Buena
OZONE
Martes Moderada
OZONE
Martes Buena
PM10
Miércoles Buena
OZONE
Miércoles Buena
PM10
Jueves Buena
OZONE
Jueves Buena
PM10
Viernes Buena
OZONE
Viernes Buena
PM10

Grosos de nieve

Estación Profundido Altura
No tenemos constancia de nieve nueva.

Actividad de terremotos

Ciudad Distance Mag. Tiempo y dato
No hay informes recientes de la actividad sísmica.
Magnitud mínima muestra es 2,5.

Temperaturas de aguas costeras

Lugar Temperatura
Eagle Point, TX 82.0 ° F
USCG Freeport, TX 80.1 ° F
Galveston Pier TX 80.1 ° F
Galveston Bay (North Jetty), TX 80.1 ° F
Rollover Pass, TX 79.0 ° F

Estaciones meteorológicas cercanas